createdAt,value
2022-09-18T00:01:37.941Z,11.68
2022-09-18T00:04:07.635Z,5.80
2022-09-18T00:06:39.798Z,7.82
2022-09-18T00:09:10.006Z,9.68
2022-09-18T00:11:40.291Z,10.65
2022-09-18T00:14:11.136Z,9.48
2022-09-18T00:16:40.353Z,9.70
2022-09-18T00:19:09.362Z,9.88
2022-09-18T00:21:42.236Z,10.73
2022-09-18T00:24:10.603Z,10.43
2022-09-18T00:26:39.638Z,10.80
2022-09-18T00:29:08.284Z,9.35
2022-09-18T00:31:38.123Z,9.35
2022-09-18T00:34:09.393Z,8.40
2022-09-18T00:36:40.273Z,9.68
2022-09-18T00:39:09.370Z,7.50
2022-09-18T00:41:40.086Z,8.52
2022-09-18T00:44:40.050Z,5.70
2022-09-18T00:47:31.138Z,8.20
2022-09-18T00:50:05.993Z,9.10
2022-09-18T00:52:45.012Z,8.02
2022-09-18T00:55:13.719Z,6.72
2022-09-18T00:57:47.287Z,10.55
2022-09-18T01:00:16.096Z,8.68
2022-09-18T01:02:45.836Z,8.15
2022-09-18T01:05:15.816Z,11.65
2022-09-18T01:07:56.178Z,13.13
2022-09-18T01:10:39.193Z,8.50
2022-09-18T01:13:15.368Z,10.27
2022-09-18T01:15:52.589Z,8.05
2022-09-18T01:18:30.824Z,9.02
2022-09-18T01:21:11.266Z,8.73
2022-09-18T01:24:28.388Z,6.60
2022-09-18T01:27:01.894Z,13.38
2022-09-18T01:29:42.462Z,15.75
2022-09-18T01:32:21.179Z,7.43
2022-09-18T01:34:55.600Z,7.53
2022-09-18T01:37:32.195Z,10.43
2022-09-18T01:40:07.530Z,8.15
2022-09-18T01:42:37.750Z,10.80
2022-09-18T01:45:11.370Z,12.00
2022-09-18T01:47:45.011Z,8.38
2022-09-18T01:50:16.049Z,8.43
2022-09-18T01:52:49.809Z,10.00
2022-09-18T01:55:23.197Z,7.85
2022-09-18T01:57:56.540Z,8.98
2022-09-18T02:00:27.513Z,12.40
2022-09-18T02:03:02.214Z,10.52
2022-09-18T02:05:36.484Z,10.40
2022-09-18T02:08:12.061Z,9.65
2022-09-18T02:10:44.394Z,6.78
2022-09-18T02:13:16.207Z,9.75
2022-09-18T02:15:50.663Z,9.57
2022-09-18T02:18:25.526Z,11.77
2022-09-18T02:20:54.792Z,9.77
2022-09-18T02:23:25.070Z,12.20
2022-09-18T02:25:56.826Z,7.32
2022-09-18T02:28:27.533Z,7.22
2022-09-18T02:30:58.550Z,7.20
2022-09-18T02:33:29.352Z,5.20
2022-09-18T02:36:20.599Z,11.43
2022-09-18T02:38:56.766Z,5.78
2022-09-18T02:41:35.007Z,7.32
2022-09-18T02:44:10.236Z,10.98
2022-09-18T02:46:48.009Z,4.85
2022-09-18T02:49:25.061Z,10.80
2022-09-18T02:51:58.176Z,6.78
2022-09-18T02:54:33.083Z,8.68
2022-09-18T02:57:06.890Z,8.68
2022-09-18T02:59:42.666Z,8.00
2022-09-18T03:02:13.234Z,8.63
2022-09-18T03:04:41.644Z,9.25
2022-09-18T03:07:10.439Z,8.65
2022-09-18T03:09:38.719Z,9.05
2022-09-18T03:12:07.259Z,5.03
2022-09-18T03:14:35.883Z,8.35
2022-09-18T03:17:04.782Z,9.30
2022-09-18T03:19:34.574Z,8.60
2022-09-18T03:22:02.977Z,7.97
2022-09-18T03:24:31.287Z,7.65
2022-09-18T03:26:59.589Z,8.85
2022-09-18T03:29:27.985Z,4.75
2022-09-18T03:31:56.442Z,9.32
2022-09-18T03:34:24.736Z,8.73
2022-09-18T03:36:54.458Z,7.55
2022-09-18T03:39:22.734Z,10.18
2022-09-18T03:41:50.993Z,6.53
2022-09-18T03:44:19.442Z,6.93
2022-09-18T03:46:47.883Z,8.48
2022-09-18T03:49:16.273Z,10.80
2022-09-18T03:51:44.637Z,7.38
2022-09-18T03:54:14.679Z,9.13
2022-09-18T03:56:43.010Z,6.30
2022-09-18T03:59:11.387Z,9.35
2022-09-18T04:01:39.735Z,4.20
2022-09-18T04:04:08.162Z,4.25
2022-09-18T04:06:36.645Z,9.05
2022-09-18T04:09:05.003Z,7.70
2022-09-18T04:11:34.726Z,9.02
2022-09-18T04:14:03.197Z,6.22
2022-09-18T04:16:31.560Z,8.27
2022-09-18T04:19:00.007Z,6.80
2022-09-18T04:21:28.355Z,8.05
2022-09-18T04:24:00.525Z,5.90
2022-09-18T04:26:28.836Z,7.03
2022-09-18T04:28:58.525Z,6.43
2022-09-18T04:31:26.967Z,6.25
2022-09-18T04:33:55.371Z,7.38
2022-09-18T04:36:23.732Z,9.45
2022-09-18T04:38:52.019Z,10.63
2022-09-18T04:41:20.441Z,9.25
2022-09-18T04:43:48.741Z,5.15
2022-09-18T04:46:18.462Z,4.75
2022-09-18T04:48:49.370Z,6.25
2022-09-18T04:51:17.712Z,6.05
2022-09-18T04:53:45.997Z,5.20
2022-09-18T04:56:14.385Z,11.80
2022-09-18T04:58:42.722Z,4.45
2022-09-18T05:01:11.072Z,6.57
2022-09-18T05:03:40.926Z,5.70
2022-09-18T05:06:09.334Z,7.63
2022-09-18T05:08:38.343Z,5.70
2022-09-18T05:11:06.820Z,7.95
2022-09-18T05:13:35.135Z,4.00
2022-09-18T05:16:03.729Z,4.47
2022-09-18T05:18:32.234Z,5.47
2022-09-18T05:21:04.671Z,7.53
2022-09-18T05:23:33.434Z,4.25
2022-09-18T05:26:01.969Z,6.47
2022-09-18T05:28:30.294Z,7.28
2022-09-18T05:31:00.756Z,5.35
2022-09-18T05:33:29.155Z,8.98
2022-09-18T05:35:58.546Z,8.85
2022-09-18T05:38:28.838Z,7.68
2022-09-18T05:41:00.993Z,6.72
2022-09-18T05:43:30.002Z,11.65
2022-09-18T05:45:58.679Z,5.43
2022-09-18T05:48:27.034Z,5.47
2022-09-18T05:50:55.563Z,6.55
2022-09-18T05:53:23.851Z,7.25
2022-09-18T05:55:53.528Z,6.93
2022-09-18T05:58:22.133Z,9.90
2022-09-18T06:00:52.167Z,5.43
2022-09-18T06:03:20.504Z,7.55
2022-09-18T06:05:53.813Z,10.35
2022-09-18T06:08:22.951Z,7.13
2022-09-18T06:10:54.804Z,6.35
2022-09-18T06:13:23.201Z,7.13
2022-09-18T06:15:53.093Z,9.75
2022-09-18T06:18:21.753Z,6.82
2022-09-18T06:20:54.526Z,9.60
2022-09-18T06:23:24.304Z,5.75
2022-09-18T06:25:59.880Z,6.10
2022-09-18T06:28:30.847Z,10.75
2022-09-18T06:30:59.522Z,11.95
2022-09-18T06:33:29.356Z,7.25
2022-09-18T06:36:00.753Z,5.82
2022-09-18T06:38:29.041Z,7.38
2022-09-18T06:40:58.721Z,6.97
2022-09-18T06:43:27.243Z,7.32
2022-09-18T06:45:57.093Z,8.95
2022-09-18T06:48:25.946Z,7.22
2022-09-18T06:50:54.775Z,7.82
2022-09-18T06:53:23.839Z,5.40
2022-09-18T06:55:52.348Z,5.57
2022-09-18T06:58:22.160Z,7.15
2022-09-18T07:00:50.588Z,8.98
2022-09-18T07:03:18.958Z,10.82
2022-09-18T07:05:47.404Z,7.38
2022-09-18T07:08:15.829Z,6.47
2022-09-18T07:10:44.132Z,5.45
2022-09-18T07:13:12.933Z,6.10
2022-09-18T07:15:42.636Z,4.97
2022-09-18T07:18:11.617Z,4.35
2022-09-18T07:20:39.976Z,7.57
2022-09-18T07:23:08.258Z,8.63
2022-09-18T07:25:36.583Z,7.28
2022-09-18T07:28:08.106Z,6.53
2022-09-18T07:30:36.581Z,8.48
2022-09-18T07:33:08.498Z,6.18
2022-09-18T07:35:37.512Z,5.50
2022-09-18T07:38:09.300Z,6.90
2022-09-18T07:40:37.872Z,6.30
2022-09-18T07:43:08.461Z,5.40
2022-09-18T07:45:37.494Z,5.40
2022-09-18T07:48:08.658Z,6.63
2022-09-18T07:50:37.141Z,5.63
2022-09-18T07:53:07.576Z,8.98
2022-09-18T07:55:37.126Z,5.47
2022-09-18T07:58:07.931Z,5.18
2022-09-18T08:00:38.057Z,7.63
2022-09-18T08:03:10.906Z,5.72
2022-09-18T08:05:39.855Z,8.73
2022-09-18T08:08:13.223Z,4.10
2022-09-18T08:10:45.003Z,5.53
2022-09-18T08:13:15.092Z,2.97
2022-09-18T08:15:44.293Z,3.20
2022-09-18T08:18:14.038Z,5.00
2022-09-18T08:20:43.078Z,5.80
2022-09-18T08:23:12.571Z,5.78
2022-09-18T08:25:42.234Z,5.57
2022-09-18T08:28:11.878Z,4.63
2022-09-18T08:30:41.105Z,4.38
2022-09-18T08:33:12.197Z,5.15
2022-09-18T08:35:43.013Z,5.22
2022-09-18T08:38:14.552Z,3.78
2022-09-18T08:41:00.841Z,5.63
2022-09-18T08:43:48.373Z,5.90
2022-09-18T08:46:22.190Z,4.05
2022-09-18T08:49:02.788Z,5.10
2022-09-18T08:51:43.921Z,3.17
2022-09-18T08:54:25.118Z,7.85
2022-09-18T08:56:57.026Z,5.68
2022-09-18T08:59:33.502Z,6.80
2022-09-18T09:02:25.275Z,4.18
2022-09-18T09:04:57.919Z,7.25
2022-09-18T09:07:39.663Z,6.40
2022-09-18T09:10:24.076Z,3.83
2022-09-18T09:13:00.123Z,3.95
2022-09-18T09:15:38.806Z,3.17
2022-09-18T09:18:18.103Z,5.13
2022-09-18T09:20:52.089Z,4.40
2022-09-18T09:23:30.701Z,2.75
2022-09-18T09:26:06.284Z,2.97
2022-09-18T09:28:44.179Z,2.28
2022-09-18T09:31:15.796Z,4.63
2022-09-18T09:33:57.563Z,8.40
2022-09-18T09:36:29.952Z,4.20
2022-09-18T09:39:07.342Z,2.60
2022-09-18T09:41:40.285Z,3.47
2022-09-18T09:44:25.033Z,3.95
2022-09-18T09:47:06.840Z,2.75
2022-09-18T09:49:41.945Z,2.83
2022-09-18T09:52:19.260Z,4.95
2022-09-18T09:54:49.773Z,5.25
2022-09-18T09:57:26.044Z,2.25
2022-09-18T10:00:07.304Z,5.50
2022-09-18T10:02:51.207Z,4.40
2022-09-18T10:05:26.698Z,3.28
2022-09-18T10:08:03.162Z,4.65
2022-09-18T10:10:41.085Z,2.00
2022-09-18T10:13:16.537Z,3.35
2022-09-18T10:15:47.714Z,3.78
2022-09-18T10:18:20.401Z,4.95
2022-09-18T10:20:51.553Z,5.78
2022-09-18T10:23:28.730Z,3.70
2022-09-18T10:26:02.286Z,3.25
2022-09-18T10:28:31.076Z,3.63
2022-09-18T10:31:01.854Z,4.32
2022-09-18T10:33:35.926Z,2.45
2022-09-18T10:36:24.552Z,2.97
2022-09-18T10:38:53.313Z,4.13
2022-09-18T10:41:35.558Z,4.60
2022-09-18T10:44:20.611Z,3.85
2022-09-18T10:46:55.836Z,3.65
2022-09-18T10:49:27.200Z,5.25
2022-09-18T10:52:28.590Z,5.00
2022-09-18T10:55:13.016Z,3.17
2022-09-18T10:57:45.212Z,5.20
2022-09-18T11:00:35.485Z,3.72
2022-09-18T11:03:18.247Z,4.00
2022-09-18T11:05:52.296Z,4.38
2022-09-18T11:08:24.084Z,4.05
2022-09-18T11:11:01.477Z,6.13
2022-09-18T11:13:32.150Z,2.03
2022-09-18T11:16:03.292Z,2.70
2022-09-18T11:18:33.477Z,4.53
2022-09-18T11:21:05.791Z,7.00
2022-09-18T11:23:35.604Z,3.30
2022-09-18T11:26:19.547Z,2.55
2022-09-18T11:29:06.869Z,2.50
2022-09-18T11:31:48.090Z,4.43
2022-09-18T11:34:26.406Z,2.33
2022-09-18T11:36:58.829Z,2.03
2022-09-18T11:39:31.249Z,3.58
2022-09-18T11:42:00.609Z,2.30
2022-09-18T11:44:32.884Z,2.22
2022-09-18T11:47:32.530Z,2.17
2022-09-18T11:50:09.616Z,2.25
2022-09-18T11:52:42.190Z,4.88
2022-09-18T11:55:18.348Z,2.28
2022-09-18T11:57:50.038Z,1.73
2022-09-18T12:00:21.925Z,3.40
2022-09-18T12:03:01.658Z,1.95
2022-09-18T12:05:37.221Z,1.58
2022-09-18T12:08:15.200Z,3.08
2022-09-18T12:10:52.824Z,1.85
2022-09-18T12:13:39.721Z,3.03
2022-09-18T12:16:15.921Z,2.75
2022-09-18T12:18:54.398Z,2.03
2022-09-18T12:21:34.439Z,2.72
2022-09-18T12:24:02.997Z,3.38
2022-09-18T12:26:39.798Z,1.27
2022-09-18T12:29:19.935Z,3.28
2022-09-18T12:31:59.598Z,1.95
2022-09-18T12:34:33.013Z,1.85
2022-09-18T12:37:12.395Z,2.58
2022-09-18T12:40:01.395Z,3.65
2022-09-18T12:42:39.674Z,3.00
2022-09-18T12:45:40.075Z,1.10
2022-09-18T12:48:27.776Z,2.83
2022-09-18T12:51:12.357Z,3.08
2022-09-18T12:53:51.257Z,2.05
2022-09-18T12:56:30.389Z,3.70
2022-09-18T12:59:22.294Z,2.42
2022-09-18T13:01:53.806Z,3.60
2022-09-18T13:04:28.934Z,4.38
2022-09-18T13:07:02.062Z,2.53
2022-09-18T13:09:34.779Z,2.60
2022-09-18T13:12:10.372Z,2.15
2022-09-18T13:14:42.145Z,3.70
2022-09-18T13:17:16.831Z,2.88
2022-09-18T13:19:53.318Z,3.67
2022-09-18T13:22:24.047Z,3.00
2022-09-18T13:24:55.328Z,2.17
2022-09-18T13:27:25.565Z,2.63
2022-09-18T13:29:59.211Z,3.83
2022-09-18T13:32:40.447Z,2.50
2022-09-18T13:35:22.188Z,1.73
2022-09-18T13:38:04.236Z,3.05
2022-09-18T13:40:35.971Z,3.50
2022-09-18T13:43:25.069Z,1.98
2022-09-18T13:45:53.987Z,1.75
2022-09-18T13:48:27.483Z,2.63
2022-09-18T13:50:59.023Z,3.90
2022-09-18T13:53:39.510Z,3.38
2022-09-18T13:56:09.890Z,3.13
2022-09-18T13:58:54.576Z,3.10
2022-09-18T14:02:02.646Z,4.53
2022-09-18T14:04:59.242Z,2.42
2022-09-18T14:08:01.129Z,1.58
2022-09-18T14:10:33.043Z,2.95
2022-09-18T14:13:34.537Z,2.80
2022-09-18T14:16:08.574Z,2.75
2022-09-18T14:18:54.316Z,2.65
2022-09-18T14:21:28.923Z,1.85
2022-09-18T14:24:38.147Z,1.77
2022-09-18T14:27:44.601Z,2.75
2022-09-18T14:30:22.260Z,1.90
2022-09-18T14:33:05.992Z,2.28
2022-09-18T14:35:40.130Z,1.63
2022-09-18T14:38:28.970Z,3.22
2022-09-18T14:41:09.264Z,3.00
2022-09-18T14:43:41.114Z,1.98
2022-09-18T14:46:19.567Z,1.80
2022-09-18T14:48:47.971Z,3.13
2022-09-18T14:51:22.612Z,3.10
2022-09-18T14:53:54.008Z,3.55
2022-09-18T14:56:28.777Z,2.80
2022-09-18T14:58:59.319Z,3.10
2022-09-18T15:01:30.624Z,3.58
2022-09-18T15:04:01.536Z,2.20
2022-09-18T15:06:35.323Z,7.00
2022-09-18T15:09:04.961Z,3.50
2022-09-18T15:11:58.409Z,4.53
2022-09-18T15:14:28.909Z,3.13
2022-09-18T15:16:59.207Z,3.67
2022-09-18T15:19:28.505Z,2.40
2022-09-18T15:21:57.276Z,4.95
2022-09-18T15:24:25.965Z,3.28
2022-09-18T15:26:58.383Z,2.45
2022-09-18T15:29:29.367Z,2.38
2022-09-18T15:31:58.003Z,3.45
2022-09-18T15:34:28.875Z,3.40
2022-09-18T15:37:00.757Z,3.10
2022-09-18T15:39:34.778Z,2.50
2022-09-18T15:42:24.867Z,2.10
2022-09-18T15:45:18.495Z,2.13
2022-09-18T15:47:47.523Z,4.32
2022-09-18T15:50:43.672Z,2.17
2022-09-18T15:53:29.557Z,2.28
2022-09-18T15:56:04.059Z,3.25
2022-09-18T15:58:45.994Z,3.63
2022-09-18T16:01:20.923Z,3.28
2022-09-18T16:03:50.080Z,2.83
2022-09-18T16:06:28.699Z,2.80
2022-09-18T16:08:58.407Z,4.20
2022-09-18T16:11:45.818Z,3.03
2022-09-18T16:14:46.604Z,4.95
2022-09-18T16:17:36.914Z,1.67
2022-09-18T16:20:24.556Z,3.28
2022-09-18T16:22:55.515Z,3.47
2022-09-18T16:25:28.880Z,3.60
2022-09-18T16:27:59.309Z,6.50
2022-09-18T16:30:29.842Z,3.10
2022-09-18T16:33:03.175Z,3.88
2022-09-18T16:35:31.501Z,3.70
2022-09-18T16:37:59.829Z,4.53
2022-09-18T16:40:31.601Z,4.82
2022-09-18T16:43:00.009Z,3.60
2022-09-18T16:45:29.787Z,4.43
2022-09-18T16:48:00.677Z,3.85
2022-09-18T16:50:29.351Z,4.55
2022-09-18T16:53:01.437Z,5.55
2022-09-18T16:55:31.406Z,4.00
2022-09-18T16:57:59.990Z,2.05
2022-09-18T17:00:29.747Z,3.97
2022-09-18T17:02:58.326Z,5.35
2022-09-18T17:05:26.665Z,6.45
2022-09-18T17:07:55.045Z,3.67
2022-09-18T17:10:23.317Z,4.95
2022-09-18T17:12:51.931Z,4.60
2022-09-18T17:15:20.608Z,2.95
2022-09-18T17:17:50.412Z,2.50
2022-09-18T17:20:19.043Z,2.40
2022-09-18T17:22:48.072Z,2.88
2022-09-18T17:25:16.676Z,3.60
2022-09-18T17:27:45.397Z,4.60
2022-09-18T17:30:13.954Z,6.43
2022-09-18T17:32:42.525Z,4.35
2022-09-18T17:35:13.587Z,1.95
2022-09-18T17:37:42.840Z,2.55
2022-09-18T17:40:11.605Z,2.40
2022-09-18T17:42:40.848Z,4.45
2022-09-18T17:45:10.269Z,3.92
2022-09-18T17:47:38.552Z,1.90
2022-09-18T17:50:07.739Z,1.33
2022-09-18T17:52:37.795Z,2.30
2022-09-18T17:55:07.032Z,5.28
2022-09-18T17:57:38.232Z,2.10
2022-09-18T18:00:09.173Z,4.72
2022-09-18T18:02:37.505Z,7.90
2022-09-18T18:05:06.435Z,11.45
2022-09-18T18:07:34.699Z,9.27
2022-09-18T18:10:04.516Z,6.53
2022-09-18T18:12:32.880Z,7.00
2022-09-18T18:15:01.212Z,5.88
2022-09-18T18:17:30.385Z,7.43
2022-09-18T18:19:58.769Z,6.97
2022-09-18T18:22:27.085Z,6.32
2022-09-18T18:24:55.360Z,6.80
2022-09-18T18:27:25.113Z,5.15
2022-09-18T18:29:53.732Z,6.13
2022-09-18T18:32:22.666Z,5.65
2022-09-18T18:34:51.091Z,4.82
2022-09-18T18:37:19.917Z,4.10
2022-09-18T18:39:48.807Z,5.38
2022-09-18T18:42:17.157Z,7.20
2022-09-18T18:44:47.168Z,3.45
2022-09-18T18:47:17.714Z,4.22
2022-09-18T18:49:46.039Z,5.35
2022-09-18T18:52:14.513Z,4.15
2022-09-18T18:54:42.857Z,7.18
2022-09-18T18:57:11.712Z,5.72
2022-09-18T18:59:40.335Z,6.70
2022-09-18T19:02:10.927Z,6.80
2022-09-18T19:04:40.620Z,6.05
2022-09-18T19:07:09.630Z,5.50
2022-09-18T19:09:37.993Z,5.95
2022-09-18T19:12:06.559Z,6.47
2022-09-18T19:14:38.031Z,5.00
2022-09-18T19:17:06.626Z,7.78
2022-09-18T19:19:36.394Z,9.07
2022-09-18T19:22:04.758Z,5.63
2022-09-18T19:24:33.093Z,7.78
2022-09-18T19:27:01.840Z,3.97
2022-09-18T19:29:30.675Z,5.18
2022-09-18T19:32:00.748Z,7.18
2022-09-18T19:34:29.177Z,4.60
2022-09-18T19:36:59.456Z,6.63
2022-09-18T19:39:28.222Z,5.68
2022-09-18T19:42:00.317Z,5.32
2022-09-18T19:44:32.918Z,5.30
2022-09-18T19:47:04.620Z,2.80
2022-09-18T19:49:35.280Z,4.15
2022-09-18T19:52:07.901Z,3.40
2022-09-18T19:54:36.269Z,6.43
2022-09-18T19:57:04.670Z,5.97
2022-09-18T19:59:33.149Z,4.25
2022-09-18T20:02:01.572Z,7.80
2022-09-18T20:04:29.992Z,8.30
2022-09-18T20:06:58.310Z,4.18
2022-09-18T20:09:30.638Z,5.50
2022-09-18T20:11:59.072Z,4.57
2022-09-18T20:14:27.383Z,6.00
2022-09-18T20:16:56.261Z,6.28
2022-09-18T20:19:26.205Z,4.40
2022-09-18T20:21:54.675Z,5.35
2022-09-18T20:24:23.073Z,5.40
2022-09-18T20:26:52.859Z,3.95
2022-09-18T20:29:21.328Z,6.82
2022-09-18T20:31:50.164Z,7.00
2022-09-18T20:34:22.502Z,7.68
2022-09-18T20:36:52.164Z,6.03
2022-09-18T20:39:21.709Z,4.80
2022-09-18T20:41:51.335Z,3.85
2022-09-18T20:44:22.021Z,5.65
2022-09-18T20:46:56.682Z,6.97
2022-09-18T20:49:25.366Z,4.13
2022-09-18T20:51:54.536Z,7.30
2022-09-18T20:54:22.952Z,3.90
2022-09-18T20:56:51.302Z,6.22
2022-09-18T20:59:21.074Z,5.88
2022-09-18T21:01:50.025Z,6.03
2022-09-18T21:04:20.064Z,5.45
2022-09-18T21:06:51.746Z,4.82
2022-09-18T21:09:20.008Z,3.90
2022-09-18T21:11:48.442Z,5.93
2022-09-18T21:14:17.922Z,4.97
2022-09-18T21:16:48.232Z,6.25
2022-09-18T21:19:20.086Z,4.25
2022-09-18T21:21:49.490Z,6.35
2022-09-18T21:24:18.513Z,7.45
2022-09-18T21:26:48.971Z,3.15
2022-09-18T21:29:20.865Z,6.25
2022-09-18T21:31:52.140Z,4.63
2022-09-18T21:34:24.557Z,7.43
2022-09-18T21:36:55.187Z,5.03
2022-09-18T21:39:23.589Z,4.78
2022-09-18T21:41:53.352Z,9.40
2022-09-18T21:44:24.786Z,6.75
2022-09-18T21:46:55.177Z,4.82
2022-09-18T21:49:23.628Z,6.18
2022-09-18T21:51:54.863Z,6.70
2022-09-18T21:54:24.256Z,7.07
2022-09-18T21:56:52.956Z,4.93
2022-09-18T21:59:22.932Z,5.63
2022-09-18T22:01:54.956Z,7.97
2022-09-18T22:04:26.384Z,4.93
2022-09-18T22:06:56.967Z,6.07
2022-09-18T22:09:26.959Z,4.30
2022-09-18T22:11:56.180Z,5.13
2022-09-18T22:14:26.791Z,4.57
2022-09-18T22:16:56.443Z,3.47
2022-09-18T22:19:26.453Z,6.25
2022-09-18T22:21:54.980Z,6.15
2022-09-18T22:24:25.132Z,3.15
2022-09-18T22:26:56.038Z,5.60
2022-09-18T22:29:26.307Z,4.80
2022-09-18T22:31:54.726Z,5.28
2022-09-18T22:34:26.491Z,4.28
2022-09-18T22:36:55.816Z,7.53
2022-09-18T22:39:24.557Z,4.22
2022-09-18T22:41:52.988Z,4.65
2022-09-18T22:44:21.963Z,5.68
2022-09-18T22:46:52.561Z,3.50
2022-09-18T22:49:22.682Z,5.22
2022-09-18T22:51:52.920Z,3.70
2022-09-18T22:54:24.888Z,2.95
2022-09-18T22:56:53.702Z,5.75
2022-09-18T22:59:23.686Z,3.63
2022-09-18T23:01:55.404Z,6.57
2022-09-18T23:04:26.425Z,4.22
2022-09-18T23:06:56.619Z,3.97
2022-09-18T23:09:25.176Z,6.93
2022-09-18T23:11:53.808Z,4.43
2022-09-18T23:14:26.020Z,3.15
2022-09-18T23:16:54.862Z,4.60
2022-09-18T23:19:26.050Z,4.35
2022-09-18T23:21:56.402Z,4.10
2022-09-18T23:24:25.841Z,6.05
2022-09-18T23:26:57.092Z,3.78
2022-09-18T23:29:27.407Z,4.43
2022-09-18T23:31:57.564Z,4.47
2022-09-18T23:34:28.927Z,2.58
2022-09-18T23:36:59.737Z,2.60
2022-09-18T23:39:29.880Z,3.05
2022-09-18T23:42:01.479Z,3.92
2022-09-18T23:44:31.385Z,5.20
2022-09-18T23:47:00.900Z,2.90
2022-09-18T23:49:29.876Z,4.35
2022-09-18T23:52:00.915Z,6.55
2022-09-18T23:54:31.365Z,5.22
2022-09-18T23:56:59.925Z,4.30
2022-09-18T23:59:28.829Z,4.18
